Aeroporto :
LOGIN :

Iscrizione | Disclaimer

   EN    FR    IT 

 










Sommario :    VFR   VFR Marginale   IFR   IFR Intensivo   IFR Molto Intensivo
Visibilità : 
Base nubi : 
>= 8 km
>= 3000ft
5 / 8 km
1000 / 3000 ft
1500m / 5 km
500 / 1000 ft
800 / 1500m
200 / 500 ft
< 800m
< 200 ft
Simboli :   Temporali  Nebbia  Neve Forte  Precipitazioni Forti  Vento > 20 kt
SIGMETs :   Varie  Temporali  Ghiacco  Turbolenza  Onda orograficha  Ceneri Vulcaniche






- Altitudine del aeroporto : 319 ft


EIME - Casement Air Base

ULTIMO METAR :
  • 192200Z 22020KT 9000 -RADZ FEW010 SCT014 BKN060 09/08 Q1002

METARs OBSOLETI :
  • 192100Z 22020KT 9999 -DZ FEW010 BKN017 BKN053 09/08 Q1003
  • 192000Z 22022G35KT 9999 -RA FEW014 SCT022 BKN056 09/08 Q1003

TAF TAF EIME
Valido dal 19 a 21 ore il 20 a 06 ore UTC


192000Z 1921/2006 22021G32KT 9999 -RA SCT012 BKN030
TEMPO 1921/2005 4000 -RADZ BKN010
BECMG 2005/2006 30015G28KT SHRA BKN018CB



MetMap, La meteo Aeronautica in un colpo d'occhio ! - Copyright ORBIFLY Dicembre 2007 - Disclaimer

ORBIFLY MET'MAP TEAM :

Programmazione e sviluppo : Alexandra Zaïnal
Concezione : Baudouin d'Aumeries
Aiuto per la programmazione : Marc-Olivier Méhu
Supporto tecnico e logistico : Manuel Goepfert
Aiuto per la traduzione : Arnaldo La Scala

Contatto : metmap@orbifly.com




FONTI E CREDITI :

   NOAA